Terminal Aerodrome Forecast
Issued by NWS Charleston, WV

Current Version | Previous Version | Graphics & Text | Print | Product List | Glossary On
Versions: 1 2 3 4 5 6 7 8 9 10 11 12 13 14 15 16 17 18 19 20 21 22 23 24 25
389
FTUS41 KRLX 281504 AAB
TAFCRW
TAF AMD
KCRW 281504Z 2815/2912 25005KT P6SM VCSH SCT008 BKN015 OVC035
      TEMPO 2815/2817 -SHRA BKN008 BKN015 OVC035
     FM290500 35004KT 5SM BR BKN008=

USA.gov is the U.S. government's official web portal to all federal, state and local government web resources and services.